• Join FlightAware (Why Join?)
  • Login
  • US Flag 
10:52PM EST


 

Airport Tracker/Info


-or-


 

Live Flight TrackerFlight Track Log ✈ DAL268 ✈ 10-Oct-2013 ✈ KJFK - LLBG / TLV

Flight Track Log - Related Links

Times and Time Zones

All times are in EDT time to prevent confusion due to time zone crossing. See the DAL268 flight status page for this flight to view local times or setup timezone preferences in your user account.

Time Position Orientation Groundspeed Altitude Reporting Facility
EDT Latitude Longitude Course Direction KTS MPH feet Rate Location/Type
09:19PM 40.6290 -73.7820 180° South  Level FlightAware
09:28PM 40.5039 -73.3912 123° Southeast  Level FlightAware Approximate
09:29PM 40.4580 -73.2230 105° East  Level FlightAware Approximate
09:30PM 40.3978 -73.0601 114° Southeast  Level FlightAware Approximate
09:33PM 40.8009 -73.4591 123° Southeast  Level Estimated
09:35PM 40.6310 -73.7790 31° Northeast 115 132  Level FlightAware
09:36PM 40.6450 -73.7680 31° Northeast 161 185 200 1,080 Climbing FlightAware
09:36PM 40.6560 -73.7570 37° Northeast 157 181 800 1,740 Climbing FlightAware
09:36PM 40.6590 -73.7500 61° Northeast 163 188 1,000 1,620 Climbing FlightAware
09:36PM 40.6606 -73.7399 78° East 171 197 1,300 1,320 Climbing FlightAware ADS-B
09:37PM 40.6610 -73.6840 89° East 214 246 2,300 1,140 Climbing FlightAware
09:38PM 40.6590 -73.6520 95° East 236 272 2,700 1,200 Climbing FlightAware
09:38PM 40.6510 -73.6290 115° Southeast 254 292 3,100 1,920 Climbing FlightAware
09:38PM 40.6390 -73.5980 117° Southeast 262 302 3,900 2,280 Climbing FlightAware
09:38PM 40.6280 -73.5700 117° Southeast 269 310 4,700 2,460 Climbing FlightAware
09:39PM 40.6170 -73.5430 118° Southeast 274 315 5,500 2,400 Climbing FlightAware
09:39PM 40.6020 -73.5050 117° Southeast 283 326 6,500 2,460 Climbing FlightAware
09:40PM 40.5890 -73.4730 118° Southeast 284 327 7,400 2,460 Climbing FlightAware
09:40PM 40.5760 -73.4400 117° Southeast 291 335 8,200 2,160 Climbing FlightAware
09:40PM 40.5650 -73.4130 118° Southeast 297 342 8,800 2,340 Climbing FlightAware
09:41PM 40.5510 -73.3790 118° Southeast 300 345 9,700 2,220 Climbing FlightAware
09:41PM 40.5370 -73.3390 115° Southeast 309 356 10,500 1,320 Climbing FlightAware
09:41PM 40.5360 -73.3190 94° East 322 371 10,500 720 Level FlightAware
09:41PM 40.5430 -73.2730 79° East 350 403 10,900 1,140 Climbing FlightAware
09:42PM 40.5560 -73.1970 77° East 376 433 11,600 1,200 Climbing FlightAware
09:42PM 40.5585 -73.1787 80° East 389 448 11,800 1,020 Climbing FlightAware ADS-B (KSNC)
09:43PM 40.5705 -73.1048 78° East 413 475 12,300 1,320 Climbing FlightAware ADS-B (KSNC)
09:43PM 40.5830 -73.0300 78° East 422 486 13,200 1,920 Climbing FlightAware
09:43PM 40.5871 -73.0049 78° East 425 489 13,600 1,980 Climbing FlightAware ADS-B (KSNC)
09:44PM 40.5996 -72.9254 78° East 436 502 14,500 1,800 Climbing FlightAware ADS-B (KSNC)
09:44PM 40.6123 -72.8470 78° East 443 510 15,500 1,740 Climbing FlightAware ADS-B (KSNC)
09:45PM 40.6298 -72.7404 78° East 456 525 16,600 1,620 Climbing FlightAware ADS-B (KSNC)
09:46PM 40.6430 -72.6580 78° East 462 532 17,400 1,620 Climbing FlightAware
09:46PM 40.6447 -72.6472 78° East 465 535 17,700 1,560 Climbing FlightAware ADS-B (KSNC)
09:46PM 40.6610 -72.5439 78° East 472 543 18,500 1,620 Climbing FlightAware ADS-B (KSNC)
09:47PM 40.6750 -72.4560 78° East 477 549 19,400 1,680 Climbing FlightAware
09:47PM 40.6786 -72.4332 78° East 480 552 19,600 1,260 Climbing FlightAware ADS-B (KSNC)
09:47PM 40.6942 -72.3351 78° East 488 562 20,300 1,320 Climbing FlightAware ADS-B (KSNC)
09:49PM 40.7240 -72.1460 78° East 501 577 21,800 1,260 Climbing FlightAware
09:49PM 40.7380 -72.0550 78° East 511 588 22,300 1,320 Climbing FlightAware
09:50PM 40.7580 -71.9200 79° East 514 592 23,500 1,380 Climbing FlightAware
09:50PM 40.7740 -71.8150 79° East 519 597 24,200 1,140 Climbing FlightAware
09:51PM 40.7910 -71.7060 78° East 525 604 24,800 900 Climbing FlightAware
09:52PM 40.8090 -71.5880 79° East 535 616 25,300 840 Climbing FlightAware
09:52PM 40.8240 -71.4820 79° East 542 624 25,800 1,080 Climbing FlightAware
09:53PM 40.8430 -71.3550 79° East 544 626 26,600 900 Climbing FlightAware
09:53PM 40.8590 -71.2490 79° East 552 635 26,900 1,020 Climbing FlightAware
09:54PM 40.8770 -71.1270 79° East 551 634 27,800 1,380 Climbing FlightAware
09:54PM 40.8990 -71.0170 75° East 552 635 28,600 960 Climbing FlightAware
09:55PM 40.9400 -70.9000 65° Northeast 562 647 29,000 900 Climbing FlightAware
09:56PM 40.9850 -70.8070 57° Northeast 563 648 29,700 1,020 Climbing FlightAware
09:56PM 41.0320 -70.7070 58° Northeast 564 649 30,200 960 Climbing FlightAware
09:57PM 41.0840 -70.5950 58° Northeast 564 649 30,900 660 Climbing FlightAware
09:57PM 41.1310 -70.4950 58° Northeast 566 651 31,000 60 Climbing FlightAware
09:58PM 41.1770 -70.3980 58° Northeast 563 648 31,000  Level FlightAware
09:59PM 41.2270 -70.2900 58° Northeast 562 647 31,000  Level FlightAware
09:59PM 41.2720 -70.1930 58° Northeast 560 644 31,000  Level FlightAware
10:00PM 41.3260 -70.0760 58° Northeast 560 644 31,000  Level FlightAware
10:00PM 41.3680 -69.9870 58° Northeast 560 644 31,000  Level FlightAware
10:01PM 41.4110 -69.8950 58° Northeast 560 644 31,000  Level FlightAware
10:02PM 41.4530 -69.8050 58° Northeast 560 644 31,000  Level FlightAware
10:02PM 41.5330 -69.6130 61° Northeast 560 644 31,000  Level FlightAware
10:03PM 41.5770 -69.5120 60° Northeast 560 644 31,000  Level FlightAware
10:04PM 41.6290 -69.3920 60° Northeast 562 647 31,000  Level FlightAware
10:04PM 41.6700 -69.2990 59° Northeast 561 646 31,000  Level FlightAware
10:05PM 41.7120 -69.2030 60° Northeast 332 382 31,000  Level FlightAware
10:05PM 41.7640 -69.0830 60° Northeast 561 646 31,000  Level FlightAware
10:06PM 41.8250 -68.9420 60° Northeast 664 764 31,000  Level FlightAware
10:07PM 41.8820 -68.8090 60° Northeast 557 641 31,000  Level FlightAware
10:07PM 41.9121 -68.7395 60° Northeast 561 646 31,000  Level FlightAware ADS-B (KBOS)
10:08PM 41.9490 -68.6521 60° Northeast 561 646 31,000  Level FlightAware ADS-B (KBOS)
10:09PM 42.0142 -68.4976 60° Northeast 563 648 31,000  Level FlightAware ADS-B (KBOS)
10:09PM 42.0567 -68.3974 60° Northeast 562 647 31,000  Level FlightAware ADS-B (KBOS)
10:10PM 42.1031 -68.2882 60° Northeast 561 646 31,000  Level FlightAware ADS-B (KBOS)
10:10PM 42.1421 -68.1943 61° Northeast 559 643 31,000  Level FlightAware ADS-B (KBOS)
10:11PM 42.1906 -68.0793 60° Northeast 556 640 31,000  Level FlightAware ADS-B (KBOS)
10:12PM 42.2507 -67.9348 61° Northeast 555 639 31,000  Level FlightAware ADS-B (KBOS)
10:13PM 42.3180 -67.7760 60° Northeast 555 639 31,000  Level FlightAware
10:13PM 42.3580 -67.6840 60° Northeast 555 639 31,000  Level FlightAware
10:14PM 42.3960 -67.5950 60° Northeast 555 639 31,000  Level FlightAware
10:15PM 42.4360 -67.5000 60° Northeast 555 639 31,000  Level FlightAware
10:15PM 42.4750 -67.4080 60° Northeast 555 639 31,000  Level FlightAware
10:16PM 42.5150 -67.3150 60° Northeast 555 639 31,000  Level FlightAware
10:16PM 42.5540 -67.2230 60° Northeast 555 639 31,000  Level FlightAware
10:17PM 42.5930 -67.1310 60° Northeast 555 639 31,000  Level FlightAware
10:18PM 42.6330 -67.0380 60° Northeast 555 639 31,000  Level FlightAware
10:18PM 42.6750 -66.9380 60° Northeast 555 639 31,000  Level FlightAware
10:19PM 42.7140 -66.8450 60° Northeast 555 639 31,000  Level FlightAware
10:19PM 42.8070 -66.5210 69° East 31,000  Level FlightAware
10:20PM 42.8460 -66.4100 64° Northeast 555 639 31,000  Level FlightAware
10:21PM 42.8860 -66.3000 64° Northeast 555 639 31,000  Level FlightAware
10:21PM 42.9240 -66.1940 64° Northeast 554 638 31,000  Level FlightAware
10:22PM 42.9700 -66.0650 64° Northeast 553 636 31,000  Level FlightAware
10:22PM 43.0080 -65.9580 64° Northeast 552 635 31,000  Level FlightAware
10:23PM 43.0480 -65.8450 64° Northeast 549 632 31,000  Level FlightAware
10:24PM 43.0910 -65.7190 65° Northeast 550 633 31,000  Level FlightAware
10:24PM 43.1300 -65.6080 64° Northeast 550 633 31,000  Level FlightAware
10:25PM 43.1630 -65.5130 65° Northeast 550 633 31,000  Level FlightAware
10:25PM 43.2070 -65.3870 64° Northeast 550 633 31,000  Level FlightAware
10:26PM 43.2440 -65.2790 65° Northeast 549 632 31,000  Level FlightAware
10:26PM 43.2770 -65.1810 65° Northeast 550 633 31,000  Level FlightAware
10:27PM 43.3200 -65.0540 65° Northeast 549 632 31,000  Level FlightAware
10:28PM 43.3590 -64.9430 64° Northeast 548 631 31,000  Level FlightAware
10:28PM 43.3900 -64.8510 65° Northeast 547 629 31,000  Level FlightAware
10:29PM 43.4280 -64.7370 65° Northeast 549 632 31,000  Level FlightAware
10:29PM 43.4690 -64.6130 65° Northeast 548 631 31,000  Level FlightAware
10:30PM 43.5120 -64.4900 64° Northeast 548 631 31,000  Level FlightAware
10:31PM 43.5440 -64.3930 66° East 548 631 31,000  Level FlightAware
10:31PM 43.5770 -64.2960 65° Northeast 548 631 31,000  Level FlightAware
10:32PM 43.6100 -64.1990 65° Northeast 548 631 31,000  Level FlightAware
10:33PM 43.6410 -64.1070 65° Northeast 548 631 31,000  Level FlightAware
10:33PM 43.6740 -64.0100 65° Northeast 548 631 31,000  Level FlightAware
10:34PM 43.7060 -63.9130 65° Northeast 548 631 31,000  Level FlightAware
10:34PM 43.7390 -63.8150 65° Northeast 548 631 31,000  Level FlightAware
10:37PM 43.9620 -63.1040 66° East 551 634 31,000  Level FlightAware
10:38PM 43.9940 -63.0030 66° East 551 634 31,000  Level FlightAware
10:39PM 44.0560 -62.8020 67° East 554 638 31,000  Level FlightAware
10:40PM 44.0910 -62.6900 66° East 554 638 31,000  Level FlightAware
10:40PM 44.1220 -62.5900 67° East 554 638 31,000  Level FlightAware
10:41PM 44.1520 -62.4890 67° East 554 638 31,000  Level FlightAware
10:41PM 44.1830 -62.3890 67° East 554 638 31,000  Level FlightAware
10:42PM 44.2390 -62.2130 66° East 556 640 31,000  Level FlightAware
10:42PM 44.2690 -62.1150 67° East 556 640 31,000  Level FlightAware
10:43PM 44.2990 -62.0140 67° East 556 640 31,000  Level FlightAware
10:43PM 44.0680 -62.7660 247° West 31,000  Level FlightAware
10:44PM 44.3500 -61.8000 247° West 560 644 31,000  Level Gander Center
10:50PM 44.7190 -60.5920 247° West 567 652 31,000  Level FlightAware
10:51PM 44.7550 -60.4650 68° East 568 654 31,000  Level FlightAware
10:51PM 44.7890 -60.3480 68° East 569 655 31,000  Level FlightAware
10:52PM 44.8250 -60.2180 69° East 568 654 31,000  Level FlightAware
10:52PM 44.8570 -60.1080 68° East 567 652 31,000  Level FlightAware
10:53PM 44.8930 -59.9810 68° East 567 652 31,000  Level FlightAware
10:53PM 44.9240 -59.8670 69° East 566 651 31,000  Level FlightAware
10:54PM 44.9580 -59.7440 69° East 564 649 31,000  Level FlightAware
10:55PM 44.9920 -59.6210 69° East 563 648 31,000  Level FlightAware
10:55PM 45.0220 -59.5110 69° East 562 647 31,000  Level FlightAware
10:56PM 45.0580 -59.3810 69° East 563 648 31,000  Level FlightAware
10:56PM 45.0900 -59.2640 69° East 564 649 31,000  Level FlightAware
10:57PM 45.1230 -59.1400 69° East 563 648 31,000  Level FlightAware
10:58PM 45.1530 -59.0300 69° East 564 649 31,000  Level FlightAware
10:58PM 45.1880 -58.8990 69° East 565 650 31,000  Level FlightAware
10:59PM 45.2220 -58.7740 69° East 567 652 31,000  Level FlightAware
10:59PM 45.2520 -58.6590 70° East 567 652 31,000  Level FlightAware
11:00PM 45.2840 -58.5370 70° East 567 652 31,000  Level FlightAware
11:01PM 45.3170 -58.4110 70° East 567 652 31,000  Level FlightAware
11:01PM 45.3480 -58.2920 70° East 567 652 31,000  Level FlightAware
11:02PM 45.3810 -58.1670 69° East 566 651 31,000  Level FlightAware
11:02PM 45.4110 -58.0520 70° East 565 650 31,000  Level FlightAware
11:03PM 45.4420 -57.9300 70° East 564 649 31,000  Level FlightAware
11:03PM 45.4720 -57.8110 70° East 564 649 31,000  Level FlightAware
11:04PM 45.5180 -57.6330 70° East 563 648 31,000  Level FlightAware
11:05PM 45.5450 -57.5260 70° East 563 648 31,000  Level FlightAware
11:06PM 45.5730 -57.4190 69° East 563 648 31,000  Level FlightAware
11:06PM 45.6010 -57.3060 70° East 563 648 31,000  Level FlightAware
11:07PM 45.6190 -57.2350 70° East 563 648 31,000  Level FlightAware
11:07PM 45.6750 -57.0040 71° East 562 647 31,000  Level FlightAware
11:08PM 45.7080 -56.8680 71° East 562 647 31,000  Level FlightAware
11:09PM 45.7430 -56.7270 70° East 564 649 31,000  Level FlightAware
11:09PM 45.7720 -56.6030 71° East 565 650 31,000  Level FlightAware
11:10PM 45.7990 -56.4980 70° East 565 650 31,000  Level FlightAware
11:10PM 45.8320 -56.3560 72° East 565 650 31,000  Level FlightAware
11:11PM 45.8660 -56.2140 71° East 566 651 31,000 120 Level FlightAware
11:12PM 45.8950 -56.0810 73° East 570 656 31,200 660 Climbing FlightAware
11:12PM 45.9200 -55.9660 73° East 569 655 31,800 1,080 Climbing FlightAware
11:13PM 45.9470 -55.8350 73° East 569 655 32,500 900 Climbing FlightAware
11:13PM 45.9740 -55.7080 73° East 572 658 32,900 360 Climbing FlightAware
11:14PM 46.0020 -55.5690 74° East 575 662 33,000 60 Climbing FlightAware
11:14PM 46.0260 -55.4560 73° East 575 662 33,000  Level FlightAware
11:15PM 46.0540 -55.3170 74° East 572 658 33,000  Level FlightAware
11:16PM 46.0780 -55.1960 74° East 572 658 33,000  Level FlightAware
11:16PM 46.1070 -55.0540 74° East 572 658 33,000  Level FlightAware
11:17PM 46.1310 -54.9370 73° East 573 659 33,000  Level FlightAware
11:17PM 46.1580 -54.8010 74° East 573 659 33,000  Level FlightAware
11:18PM 46.1840 -54.6730 74° East 572 658 33,000  Level FlightAware
11:19PM 46.2100 -54.5410 74° East 571 657 33,000  Level FlightAware
11:19PM 46.2330 -54.4200 75° East 572 658 33,000  Level FlightAware
11:20PM 46.2580 -54.2920 74° East 571 657 33,000  Level FlightAware
11:20PM 46.2840 -54.1590 74° East 571 657 33,000  Level FlightAware
11:21PM 46.3080 -54.0310 75° East 571 657 33,000  Level FlightAware
11:22PM 46.3330 -53.9020 74° East 572 658 33,000  Level FlightAware
11:22PM 46.3570 -53.7760 75° East 572 658 33,000  Level FlightAware
11:23PM 46.3810 -53.6470 75° East 573 659 33,000  Level FlightAware
11:23PM 46.4070 -53.5110 74° East 572 658 33,000  Level FlightAware
11:24PM 46.4300 -53.3850 75° East 573 659 33,000  Level FlightAware
11:24PM 46.4530 -53.2630 75° East 573 659 33,000  Level FlightAware
11:25PM 46.4780 -53.1250 75° East 573 659 33,000  Level FlightAware
11:26PM 46.5020 -52.9920 75° East 573 659 33,000  Level FlightAware
11:26PM 46.5260 -52.8610 75° East 575 662 33,000  Level FlightAware
11:27PM 46.5460 -52.7450 76° East 576 663 33,000  Level FlightAware
11:27PM 46.5700 -52.6100 75° East 578 665 33,000  Level FlightAware
11:28PM 46.5950 -52.4710 75° East 578 665 33,000  Level FlightAware
11:29PM 46.6200 -52.3280 76° East 580 667 33,000  Level FlightAware
11:29PM 46.6410 -52.2110 75° East 582 670 33,000  Level FlightAware
11:30PM 46.6630 -52.0780 76° East 581 669 33,000  Level FlightAware
11:30PM 46.6850 -51.9530 76° East 582 670 33,000  Level FlightAware
11:31PM 46.7090 -51.8120 76° East 581 669 33,000  Level FlightAware
11:31PM 46.7320 -51.6760 76° East 579 666 33,000  Level FlightAware
11:32PM 46.7550 -51.5400 76° East 579 666 33,000  Level FlightAware
11:33PM 46.7750 -51.4190 76° East 579 666 33,000  Level FlightAware
11:33PM 46.7980 -51.2780 77° East 580 667 33,000  Level FlightAware
11:34PM 46.8200 -51.1410 77° East 581 669 33,000  Level FlightAware
11:34PM 46.8400 -51.0220 76° East 582 670 33,000  Level FlightAware
11:35PM 46.8630 -50.8770 77° East 582 670 33,000  Level FlightAware
11:36PM 46.8850 -50.7430 76° East 585 673 33,000  Level FlightAware
11:36PM 46.9060 -50.6080 77° East 587 676 33,000  Level FlightAware
11:37PM 46.9280 -50.4800 76° East 587 676 33,000  Level FlightAware
11:37PM 46.9490 -50.3590 76° East 587 676 33,000  Level FlightAware
11:38PM 46.9730 -50.1810 79° East 591 680 33,000  Level FlightAware
11:39PM 46.9950 -50.0330 78° East 592 681 33,000  Level FlightAware
11:39PM 47.0150 -49.8990 78° East 595 685 33,000  Level FlightAware
11:40PM 47.0360 -49.7530 78° East 597 687 33,000  Level FlightAware
11:40PM 47.0540 -49.6270 78° East 597 687 33,000  Level FlightAware
11:41PM 47.0750 -49.4800 78° East 597 687 33,000  Level FlightAware
11:41PM 47.0930 -49.3530 78° East 598 688 33,000  Level FlightAware
11:42PM 47.1130 -49.2060 79° East 597 687 33,000  Level FlightAware
11:43PM 47.1340 -49.0590 78° East 597 687 33,000  Level FlightAware
11:43PM 47.1500 -48.9360 79° East 596 686 33,000  Level FlightAware
11:44PM 47.1680 -48.8060 78° East 595 685 33,000  Level FlightAware
11:44PM 47.1890 -48.6470 79° East 594 684 33,000  Level FlightAware
11:45PM 47.2100 -48.4960 78° East 594 684 33,000  Level FlightAware
11:46PM 47.2280 -48.3750 78° East 594 684 33,000  Level FlightAware
11:46PM 47.2460 -48.2150 81° East 592 681 33,000  Level FlightAware
11:47PM 47.2630 -48.0910 79° East 592 681 33,000  Level FlightAware
11:48PM 47.2790 -47.9660 79° East 592 681 33,000  Level FlightAware
11:48PM 47.2950 -47.8450 79° East 592 681 33,000  Level FlightAware
11:49PM 47.3120 -47.7200 79° East 592 681 33,000  Level FlightAware
11:49PM 47.3280 -47.5990 79° East 592 681 33,000  Level FlightAware
11:50PM 47.3430 -47.4840 79° East 592 681 33,000  Level FlightAware
11:51PM 47.3590 -47.3630 79° East 592 681 33,000  Level FlightAware
11:51PM 47.3750 -47.2380 79° East 592 681 33,000  Level FlightAware
11:52PM 47.3910 -47.1160 79° East 592 681 33,000  Level FlightAware
11:52PM 47.4070 -46.9950 79° East 592 681 33,000  Level FlightAware
11:53PM 47.4230 -46.8730 79° East 592 681 33,000  Level FlightAware
11:54PM 47.4390 -46.7520 79° East 592 681 33,000  Level FlightAware
11:54PM 47.4550 -46.6300 79° East 592 681 33,000  Level FlightAware
11:55PM 47.4710 -46.5080 79° East 592 681 33,000  Level FlightAware
11:55PM 47.4870 -46.3870 79° East 592 681 33,000  Level FlightAware
12:01AM 47.6027 -45.2746 81° East  Level FlightAware Approximate
12:02AM 47.6238 -45.0588 82° East  Level FlightAware Approximate
12:03AM 47.6446 -44.8427 82° East  Level FlightAware Approximate
12:04AM 47.6649 -44.6265 82° East  Level FlightAware Approximate
12:05AM 47.6848 -44.4102 82° East  Level FlightAware Approximate
12:06AM 47.7044 -44.1936 82° East  Level FlightAware Approximate
12:07AM 47.7235 -43.9769 82° East  Level FlightAware Approximate
12:08AM 47.7422 -43.7601 83° East  Level FlightAware Approximate
12:09AM 47.7605 -43.5431 83° East  Level FlightAware Approximate
12:10AM 47.7784 -43.3259 83° East  Level FlightAware Approximate
12:11AM 47.7959 -43.1086 83° East  Level FlightAware Approximate
12:12AM 47.8129 -42.8912 83° East  Level FlightAware Approximate
12:13AM 47.8296 -42.6736 83° East  Level FlightAware Approximate
12:14AM 47.8458 -42.4559 84° East  Level FlightAware Approximate
12:15AM 47.8617 -42.2380 84° East  Level FlightAware Approximate
12:16AM 47.8771 -42.0200 84° East  Level FlightAware Approximate
12:17AM 47.8921 -41.8019 84° East  Level FlightAware Approximate
12:18AM 47.9067 -41.5837 84° East  Level FlightAware Approximate
12:19AM 47.9209 -41.3653 84° East  Level FlightAware Approximate
12:20AM 47.9346 -41.1468 85° East  Level FlightAware Approximate
12:21AM 47.9480 -40.9282 85° East  Level FlightAware Approximate
12:22AM 47.9609 -40.7095 85° East  Level FlightAware Approximate
12:23AM 47.9734 -40.4924 85° East  Level FlightAware Approximate
12:24AM 47.9854 -40.2751 85° East  Level FlightAware Approximate
12:25AM 47.9970 -40.0578 85° East  Level FlightAware Approximate
12:26AM 48.0227 -39.8434 78° East  Level FlightAware Approximate
12:27AM 48.0534 -39.6301 78° East  Level FlightAware Approximate
12:28AM 48.0836 -39.4164 78° East  Level FlightAware Approximate
12:29AM 48.1134 -39.2025 78° East  Level FlightAware Approximate
12:30AM 48.1428 -38.9884 78° East  Level FlightAware Approximate
12:31AM 48.1719 -38.7740 78° East  Level FlightAware Approximate
12:32AM 48.2005 -38.5594 79° East  Level FlightAware Approximate
12:33AM 48.2288 -38.3446 79° East  Level FlightAware Approximate
12:34AM 48.2566 -38.1295 79° East  Level FlightAware Approximate
12:35AM 48.2840 -37.9141 79° East  Level FlightAware Approximate
12:36AM 48.3111 -37.6986 79° East  Level FlightAware Approximate
12:37AM 48.3377 -37.4828 79° East  Level FlightAware Approximate
12:38AM 48.3639 -37.2668 80° East  Level FlightAware Approximate
12:39AM 48.3898 -37.0506 80° East  Level FlightAware Approximate
12:40AM 48.4152 -36.8341 80° East  Level FlightAware Approximate
12:41AM 48.4402 -36.6175 80° East  Level FlightAware Approximate
12:42AM 48.4648 -36.4006 80° East  Level FlightAware Approximate
12:43AM 48.4890 -36.1835 80° East  Level FlightAware Approximate
12:44AM 48.5127 -35.9662 81° East  Level FlightAware Approximate
12:45AM 48.5361 -35.7487 81° East  Level FlightAware Approximate
12:46AM 48.5591 -35.5311 81° East  Level FlightAware Approximate
12:47AM 48.5816 -35.3132 81° East  Level FlightAware Approximate
12:48AM 48.6038 -35.0951 81° East  Level FlightAware Approximate
12:49AM 48.6255 -34.8769 81° East  Level FlightAware Approximate
12:50AM 48.6468 -34.6584 82° East  Level FlightAware Approximate
12:51AM 48.6678 -34.4398 82° East  Level FlightAware Approximate
12:52AM 48.6882 -34.2210 82° East  Level FlightAware Approximate
12:53AM 48.7083 -34.0020 82° East  Level FlightAware Approximate
12:54AM 48.7280 -33.7828 82° East  Level FlightAware Approximate
12:55AM 48.7472 -33.5635 82° East  Level FlightAware Approximate
12:56AM 48.7660 -33.3440 83° East  Level FlightAware Approximate
12:57AM 48.7845 -33.1243 83° East  Level FlightAware Approximate
12:58AM 48.8024 -32.9045 83° East  Level FlightAware Approximate
12:59AM 48.8200 -32.6845 83° East  Level FlightAware Approximate
01:00AM 48.8372 -32.4644 83° East  Level FlightAware Approximate
01:01AM 48.8539 -32.2441 83° East  Level FlightAware Approximate
01:02AM 48.8703 -32.0237 83° East  Level FlightAware Approximate
01:03AM 48.8862 -31.8031 84° East  Level FlightAware Approximate
01:04AM 48.9016 -31.5824 84° East  Level FlightAware Approximate
01:05AM 48.9167 -31.3616 84° East  Level FlightAware Approximate
01:06AM 48.9313 -31.1406 84° East  Level FlightAware Approximate
01:07AM 48.9455 -30.9195 84° East  Level FlightAware Approximate
01:08AM 48.9593 -30.6983 84° East  Level FlightAware Approximate
01:09AM 48.9727 -30.4769 85° East  Level FlightAware Approximate
01:10AM 48.9856 -30.2559 85° East  Level FlightAware Approximate
01:11AM 48.9981 -30.0347 85° East  Level FlightAware Approximate
01:12AM 49.0262 -29.8171 78° East  Level FlightAware Approximate
01:13AM 49.0570 -29.5998 78° East  Level FlightAware Approximate
01:14AM 49.0873 -29.3823 78° East  Level FlightAware Approximate
01:15AM 49.1172 -29.1646 78° East  Level FlightAware Approximate
01:16AM 49.1467 -28.9466 78° East  Level FlightAware Approximate
01:17AM 49.1758 -28.7283 78° East  Level FlightAware Approximate
01:18AM 49.2045 -28.5098 79° East  Level FlightAware Approximate
01:19AM 49.2328 -28.2910 79° East  Level FlightAware Approximate
01:20AM 49.2606 -28.0720 79° East  Level FlightAware Approximate
01:21AM 49.2881 -27.8527 79° East  Level FlightAware Approximate
01:22AM 49.3151 -27.6332 79° East  Level FlightAware Approximate
01:23AM 49.3417 -27.4134 79° East  Level FlightAware Approximate
01:24AM 49.3679 -27.1935 80° East  Level FlightAware Approximate
01:25AM 49.3937 -26.9732 80° East  Level FlightAware Approximate
01:26AM 49.4190 -26.7528 80° East  Level FlightAware Approximate
01:27AM 49.4440 -26.5321 80° East  Level FlightAware Approximate
01:28AM 49.4685 -26.3112 80° East  Level FlightAware Approximate
01:29AM 49.4926 -26.0901 80° East  Level FlightAware Approximate
01:30AM 49.5163 -25.8687 81° East  Level FlightAware Approximate
01:31AM 49.5395 -25.6472 81° East  Level FlightAware Approximate
01:32AM 49.5624 -25.4254 81° East  Level FlightAware Approximate
01:33AM 49.5848 -25.2035 81° East  Level FlightAware Approximate
01:34AM 49.6070 -24.9814 81° East  Level FlightAware Approximate
01:35AM 49.6292 -24.7592 81° East  Level FlightAware Approximate
01:36AM 49.6510 -24.5368 81° East  Level FlightAware Approximate
01:37AM 49.6724 -24.3142 81° East  Level FlightAware Approximate
01:38AM 49.6934 -24.0914 82° East  Level FlightAware Approximate
01:39AM 49.7139 -23.8684 82° East  Level FlightAware Approximate
01:40AM 49.7340 -23.6452 82° East  Level FlightAware Approximate
01:41AM 49.7537 -23.4219 82° East  Level FlightAware Approximate
01:42AM 49.7730 -23.1983 82° East  Level FlightAware Approximate
01:43AM 49.7918 -22.9746 82° East  Level FlightAware Approximate
01:44AM 49.8102 -22.7507 83° East  Level FlightAware Approximate
01:45AM 49.8281 -22.5267 83° East  Level FlightAware Approximate
01:46AM 49.8457 -22.3025 83° East  Level FlightAware Approximate
01:47AM 49.8628 -22.0781 83° East  Level FlightAware Approximate
01:48AM 49.8794 -21.8535 83° East  Level FlightAware Approximate
01:49AM 49.8956 -21.6289 84° East  Level FlightAware Approximate
01:50AM 49.9114 -21.4040 84° East  Level FlightAware Approximate
01:51AM 49.9268 -21.1790 84° East  Level FlightAware Approximate
01:52AM 49.9417 -20.9539 84° East  Level FlightAware Approximate
01:53AM 49.9562 -20.7286 84° East  Level FlightAware Approximate
01:54AM 49.9702 -20.5033 84° East  Level FlightAware Approximate
01:55AM 49.9838 -20.2777 85° East  Level FlightAware Approximate
01:56AM 49.9970 -20.0525 85° East  Level FlightAware Approximate
01:57AM 49.9946 -19.8267 93° East  Level FlightAware Approximate
01:58AM 49.9871 -19.6008 93° East  Level FlightAware Approximate
01:59AM 49.9792 -19.3750 93° East  Level FlightAware Approximate
02:00AM 49.9709 -19.1493 93° East  Level FlightAware Approximate
02:01AM 49.9622 -18.9236 93° East  Level FlightAware Approximate
02:02AM 49.9529 -18.6980 94° East  Level FlightAware Approximate
02:03AM 49.9433 -18.4726 94° East  Level FlightAware Approximate
02:04AM 49.9332 -18.2472 94° East  Level FlightAware Approximate
02:05AM 49.9227 -18.0219 94° East  Level FlightAware Approximate
02:06AM 49.9118 -17.7967 94° East  Level FlightAware Approximate
02:07AM 49.9004 -17.5716 94° East  Level FlightAware Approximate
02:08AM 49.8886 -17.3466 95° East  Level FlightAware Approximate
02:09AM 49.8763 -17.1217 95° East  Level FlightAware Approximate
02:10AM 49.8635 -16.8970 95° East  Level FlightAware Approximate
02:11AM 49.8497 -16.6725 95° East  Level FlightAware Approximate
02:12AM 49.8355 -16.4480 96° East  Level FlightAware Approximate
02:13AM 49.8209 -16.2238 96° East  Level FlightAware Approximate
02:14AM 49.8059 -15.9996 96° East  Level FlightAware Approximate
02:15AM 49.7904 -15.7756 96° East  Level FlightAware Approximate
02:16AM 49.7744 -15.5518 96° East  Level FlightAware Approximate
02:17AM 49.7581 -15.3281 96° East  Level FlightAware Approximate
02:18AM 49.7413 -15.1045 97° East  Level FlightAware Approximate
02:19AM 49.7242 -14.8811 97° East  Level FlightAware Approximate
02:20AM 49.7066 -14.6579 97° East  Level FlightAware Approximate
02:21AM 49.6886 -14.4348 97° East  Level FlightAware Approximate
02:22AM 49.6701 -14.2119 97° East  Level FlightAware Approximate
02:23AM 49.6512 -13.9892 97° East  Level FlightAware Approximate
02:24AM 49.6320 -13.7666 98° East  Level FlightAware Approximate
02:25AM 49.6122 -13.5442 98° East  Level FlightAware Approximate
02:26AM 49.5921 -13.3220 98° East  Level FlightAware Approximate
02:27AM 49.5715 -13.1000 98° East  Level FlightAware Approximate
02:28AM 49.5505 -12.8781 98° East  Level FlightAware Approximate
02:29AM 49.5306 -12.6562 95° East  Level FlightAware Approximate
02:30AM 49.5167 -12.4332 98° East  Level FlightAware Approximate
02:31AM 49.4951 -12.2118 98° East  Level FlightAware Approximate
02:32AM 49.4731 -11.9905 99° East  Level FlightAware Approximate
02:33AM 49.4507 -11.7694 99° East  Level FlightAware Approximate
02:34AM 49.4279 -11.5486 99° East  Level FlightAware Approximate
02:35AM 49.4047 -11.3279 99° East  Level FlightAware Approximate
02:36AM 49.3810 -11.1075 99° East  Level FlightAware Approximate
02:37AM 49.3569 -10.8873 99° East  Level FlightAware Approximate
02:38AM 49.3324 -10.6672 100° East  Level FlightAware Approximate
02:39AM 49.3075 -10.4475 100° East  Level FlightAware Approximate
02:40AM 49.2822 -10.2279 100° East  Level FlightAware Approximate
02:41AM 49.2565 -10.0086 100° East  Level FlightAware Approximate
02:41AM 49.3710 -10.0300 100° East 513 590 34,000  Level FlightAware
02:42AM 49.2303 -9.7895 100° East  Level FlightAware Approximate
02:42AM 49.3550 -9.9200 103° East 513 590 34,000  Level FlightAware
02:42AM 49.3370 -9.8050 103° East 513 590 34,000  Level FlightAware
02:43AM 49.3210 -9.6970 103° East 513 590 34,000  Level FlightAware
02:43AM 49.2970 -9.5450 104° East 514 592 34,000  Level FlightAware
02:44AM 49.2790 -9.4240 103° East 514 592 34,000  Level FlightAware
02:45AM 49.2560 -9.2760 103° East 515 593 34,000  Level FlightAware
02:45AM 49.2370 -9.1550 103° East 516 594 34,000  Level FlightAware
02:46AM 49.2130 -9.0100 104° East 517 595 34,000  Level FlightAware
02:47AM 49.1940 -8.8890 104° East 517 595 34,000  Level FlightAware
02:47AM 49.1921 -8.8755 104° East 502 578 34,000  Level FlightAware UK
02:47AM 49.1748 -8.7693 104° East 502 578 34,000  Level FlightAware UK
02:47AM 49.1730 -8.7590 104° East 516 594 34,000  Level FlightAware
02:48AM 49.1520 -8.6320 104° East 514 592 34,000  Level FlightAware
02:48AM 49.1330 -8.5190 104° East 514 592 34,000  Level FlightAware
02:49AM 49.1130 -8.3930 104° East 513 590 34,000  Level FlightAware
02:49AM 49.0910 -8.2630 104° East 514 592 34,000  Level FlightAware
02:50AM 49.0710 -8.1470 104° East 515 593 34,000  Level FlightAware
02:50AM 49.0691 -8.1354 104° East 494 568 34,000  Level FlightAware UK
02:51AM 49.0513 -8.0298 104° East 496 571 34,000  Level FlightAware UK
02:51AM 49.0510 -8.0240 104° East 518 596 34,000  Level FlightAware
02:51AM 49.0230 -7.8990 109° East 524 603 34,000  Level FlightAware
02:52AM 48.9920 -7.7750 111° Southeast 524 603 34,000  Level FlightAware
02:52AM 48.9590 -7.6490 112° Southeast 522 601 34,000 60 Level FlightAware
02:53AM 48.9310 -7.5430 112° Southeast 524 603 34,100 660 Climbing FlightAware
02:54AM 48.8990 -7.4230 112° Southeast 524 603 34,800 1,080 Climbing FlightAware
02:54AM 48.8967 -7.4129 112° Southeast 498 573 34,800 360 Level FlightAware UK
02:54AM 48.8693 -7.3101 112° Southeast 500 575 35,000 360 Climbing FlightAware UK
02:54AM 48.8700 -7.3140 112° Southeast 526 605 35,000  Level FlightAware
02:55AM 48.8350 -7.1810 112° Southeast 524 603 35,000  Level FlightAware
02:55AM 48.8030 -7.0620 112° Southeast 523 602 35,000  Level FlightAware
02:56AM 48.7710 -6.9430 112° Southeast 523 602 35,000  Level FlightAware
02:56AM 48.7380 -6.8240 113° Southeast 524 603 35,000  Level FlightAware
02:57AM 48.7090 -6.7160 112° Southeast 524 603 35,000  Level FlightAware
02:58AM 48.6760 -6.5944 112° Southeast 494 568 35,000  Level FlightAware UK
02:58AM 48.6740 -6.5870 112° Southeast 525 604 35,000  Level FlightAware
02:58AM 48.6430 -6.4750 113° Southeast 527 606 35,000  Level FlightAware
02:59AM 48.6090 -6.3490 112° Southeast 531 611 35,000  Level FlightAware
02:59AM 48.5730 -6.2230 113° Southeast 533 613 35,000  Level FlightAware
03:00AM 48.5420 -6.1090 112° Southeast 536 617 35,000  Level FlightAware
03:01AM 48.5060 -5.9850 114° Southeast 537 618 35,000  Level FlightAware
03:01AM 48.4764 -5.8769 114° Southeast 492 566 35,000  Level FlightAware UK
03:01AM 48.4740 -5.8720 114° Southeast 538 619 35,000  Level FlightAware
03:02AM 48.4410 -5.7510 112° Southeast 539 620 35,000  Level FlightAware
03:02AM 48.4050 -5.6260 113° Southeast 540 621 35,000  Level FlightAware
03:03AM 48.3680 -5.4990 114° Southeast 539 620 35,000  Level FlightAware
03:03AM 48.3390 -5.3960 113° Southeast 540 621 35,000  Level FlightAware
03:04AM 48.3020 -5.2690 114° Southeast 538 619 35,000  Level FlightAware
03:05AM 48.2660 -5.1430 113° Southeast 536 617 35,000  Level FlightAware
03:05AM 48.2327 -5.0288 113° Southeast 496 571 35,000  Level FlightAware UK
03:05AM 48.2340 -5.0340 113° Southeast 535 616 35,000  Level FlightAware
03:06AM 48.1960 -4.9050 114° Southeast 536 617 35,000  Level FlightAware
03:06AM 48.1570 -4.7750 114° Southeast 540 621 35,000  Level FlightAware
03:07AM 48.1200 -4.6480 114° Southeast 543 625 35,000  Level FlightAware
03:08AM 48.0870 -4.5380 114° Southeast 547 629 35,000  Level FlightAware
03:08AM 48.0460 -4.4030 114° Southeast 550 633 35,000  Level FlightAware
03:09AM 48.0120 -4.2850 113° Southeast 554 638 35,000  Level FlightAware
03:09AM 47.9907 -4.2155 115° Southeast 556 640 35,000  Level FlightAware ADS-B (EGJJ / JER)
03:10AM 47.9392 -4.0477 115° Southeast 557 641 35,000  Level FlightAware ADS-B (EGJJ / JER)
03:11AM 47.9020 -3.9260 114° Southeast 555 639 35,000  Level FlightAware
03:11AM 47.8670 -3.8150 115° Southeast 554 638 35,000  Level FlightAware
03:12AM 47.8280 -3.6870 114° Southeast 549 632 35,000  Level FlightAware
03:12AM 47.8648 -3.8044 295° West 547 629 35,000  Level FlightAware ADS-B (EGJJ / JER)
03:13AM 47.7550 -3.4600 115° Southeast 551 634 35,000  Level FlightAware
03:13AM 47.7308 -3.3905 117° Southeast 552 635 35,000  Level FlightAware ADS-B (LFBU / ANG)
03:14AM 47.6934 -3.3037 123° Southeast 555 639 35,000  Level FlightAware ADS-B (LFBU / ANG)
03:14AM 47.6148 -3.1284 124° Southeast 558 642 35,000  Level FlightAware ADS-B (LFBU / ANG)
03:15AM 47.5646 -3.0177 124° Southeast 558 642 35,000  Level FlightAware ADS-B (LFBU / ANG)
03:16AM 47.5218 -2.9233 124° Southeast 556 640 35,000  Level FlightAware ADS-B (LFBU / ANG)
03:16AM 47.4754 -2.8227 124° Southeast 558 642 35,000  Level FlightAware ADS-B (LFBU / ANG)
03:17AM 47.4230 -2.7128 125° Southeast 561 646 35,000  Level FlightAware ADS-B (LFBU / ANG)
03:17AM 47.3755 -2.6087 124° Southeast 563 648 35,000  Level FlightAware ADS-B (LFBU / ANG)
03:18AM 47.3345 -2.5236 125° Southeast 566 651 35,000  Level FlightAware ADS-B (LFBU / ANG)
03:18AM 47.2652 -2.3748 124° Southeast 568 654 35,000  Level FlightAware ADS-B (LFBU / ANG)
03:19AM 47.2060 -2.2510 125° Southeast 568 654 35,000  Level FlightAware
03:19AM 47.1786 -2.1945 126° Southeast 568 654 35,000  Level FlightAware ADS-B (LFBU / ANG)
03:20AM 47.0919 -2.0113 125° Southeast 569 655 35,000  Level FlightAware ADS-B (LFBU / ANG)
03:21AM 47.0451 -1.9166 126° Southeast 569 655 35,000  Level FlightAware ADS-B (LFBU / ANG)
03:21AM 46.9985 -1.8192 125° Southeast 568 654 35,000  Level FlightAware ADS-B (LFBU / ANG)
03:22AM 46.9531 -1.7251 125° Southeast 568 654 35,000  Level FlightAware ADS-B (LFBU / ANG)
03:22AM 46.9113 -1.6376 125° Southeast 569 655 35,000  Level FlightAware ADS-B (LFBU / ANG)
03:23AM 46.8606 -1.5344 126° Southeast 569 655 35,000  Level FlightAware ADS-B (LFBU / ANG)
03:23AM 46.8151 -1.4404 125° Southeast 569 655 35,000  Level FlightAware ADS-B (LFBU / ANG)
03:24AM 46.7482 -1.3065 126° Southeast 569 655 35,000  Level FlightAware ADS-B (LFBU / ANG)
03:25AM 46.6750 -1.1570 125° Southeast 569 655 35,000  Level FlightAware
03:25AM 46.6396 -1.0856 126° Southeast 570 656 35,000  Level FlightAware ADS-B (LFBU / ANG)
03:26AM 46.5886 -0.9833 126° Southeast 570 656 35,000  Level FlightAware ADS-B (LFBU / ANG)
03:27AM 46.5245 -0.8528 125° Southeast 571 657 35,000  Level FlightAware ADS-B (LFBU / ANG)
03:27AM 46.4670 -0.7200 122° Southeast 568 654 35,000  Level FlightAware
03:28AM 46.4427 -0.6442 115° Southeast 566 651 35,000  Level FlightAware ADS-B (LFBU / ANG)
03:28AM 46.4207 -0.5592 111° Southeast 565 650 35,000  Level FlightAware ADS-B (LFBU / ANG)
03:29AM 46.4162 -0.5414 110° East 565 650 35,000  Level FlightAware ADS-B (LFBU / ANG)
03:29AM 46.3446 -0.2507 110° East 563 648 35,000  Level FlightAware ADS-B (LFBU / ANG)
03:30AM 46.3175 -0.1411 110° East 562 647 35,000  Level FlightAware ADS-B (LFBU / ANG)
03:31AM 46.2866 -0.0176 110° East 562 647 35,000  Level FlightAware ADS-B (LFBU / ANG)
03:31AM 46.2548 0.1092 110° East 561 646 35,000  Level FlightAware ADS-B (LFBU / ANG)
03:32AM 46.2242 0.2284 110° East 560 644 35,000  Level FlightAware ADS-B (LFBU / ANG)
03:32AM 46.1978 0.3377 109° East 556 640 35,000  Level FlightAware ADS-B (LFBU / ANG)
03:33AM 46.1787 0.4636 102° East 552 635 35,000  Level FlightAware ADS-B (LFBU / ANG)
03:33AM 46.1700 0.5694 97° East 551 634 35,000  Level FlightAware ADS-B (LFBU / ANG)
03:34AM 46.1623 0.6828 96° East 551 634 35,000  Level FlightAware ADS-B (LFBU / ANG)
03:34AM 46.1547 0.7919 96° East 550 633 35,000  Level FlightAware ADS-B (LFBU / ANG)
03:35AM 46.1481 0.8865 96° East 550 633 35,000  Level FlightAware ADS-B (LFBU / ANG)
03:35AM 46.1380 1.0320 96° East 550 633 35,000  Level FlightAware
03:36AM 46.1339 1.0905 96° East 551 634 35,000  Level FlightAware ADS-B (LFBU / ANG)
03:36AM 46.1252 1.2106 96° East 551 634 35,000  Level FlightAware ADS-B (LFBU / ANG)
03:37AM 46.1152 1.3456 96° East 550 633 35,000  Level FlightAware ADS-B (LFBU / ANG)
03:38AM 46.1015 1.5342 96° East 549 632 35,000  Level FlightAware ADS-B (LFBU / ANG)
03:38AM 46.0910 1.6720 96° East 549 632 35,000  Level FlightAware
03:39AM 46.0811 1.8027 96° East 548 631 35,000  Level FlightAware ADS-B (LFBU / ANG)
03:40AM 46.0720 1.9290 96° East 547 629 35,000  Level FlightAware
03:40AM 46.0663 1.9980 97° East 546 628 35,000  Level FlightAware ADS-B (LFBU / ANG)
03:41AM 46.0550 2.1423 96° East 547 629 35,000  Level FlightAware ADS-B (LFBU / ANG)
03:41AM 46.0340 2.2731 103° East 547 629 35,000  Level FlightAware ADS-B (LFBU / ANG)
03:42AM 46.0052 2.4308 105° East 545 627 35,000  Level FlightAware ADS-B (LFBU / ANG)
03:43AM 45.9830 2.5530 105° East 545 627 35,000  Level FlightAware
03:43AM 45.9599 2.6789 105° East 544 626 35,000  Level FlightAware ADS-B (LFBU / ANG)
03:44AM 45.9388 2.7902 105° East 543 625 35,000  Level FlightAware ADS-B (LFBU / ANG)
03:44AM 45.9160 2.8970 107° East 551 634 35,000  Level FlightAware
03:44AM 45.9053 2.9260 118° Southeast 550 633 35,000  Level FlightAware ADS-B (LFBU / ANG)
03:45AM 45.8462 3.0391 127° Southeast 553 636 35,000  Level FlightAware ADS-B (LFBU / ANG)
03:46AM 45.7810 3.1560 129° Southeast 551 634 35,000  Level FlightAware
03:46AM 45.7492 3.2134 128° Southeast 553 636 35,000  Level FlightAware ADS-B (LFBU / ANG)
03:47AM 45.6977 3.3056 129° Southeast 552 635 35,000  Level FlightAware ADS-B (LFBU / ANG)
03:47AM 45.6160 3.4550 128° Southeast 553 636 35,000  Level FlightAware
03:48AM 45.5670 3.5480 127° Southeast 552 635 35,000  Level FlightAware
03:48AM 45.5334 3.6084 128° Southeast 553 636 35,000  Level FlightAware ADS-B (LFBU / ANG)
03:49AM 45.4580 3.7500 127° Southeast 554 638 35,000  Level FlightAware
03:50AM 45.3980 3.8590 128° Southeast 555 639 35,000  Level FlightAware
03:50AM 45.3390 3.9660 128° Southeast 555 639 35,000  Level FlightAware
03:51AM 45.2910 4.0610 126° Southeast 555 639 35,000  Level FlightAware
03:51AM 45.2370 4.1640 127° Southeast 555 639 35,000  Level FlightAware
03:52AM 45.1850 4.2670 126° Southeast 555 639 35,000  Level FlightAware
03:53AM 45.1260 4.3810 126° Southeast 557 641 35,000  Level FlightAware
03:53AM 45.0780 4.4750 126° Southeast 557 641 35,000  Level FlightAware
03:54AM 45.0200 4.5830 127° Southeast 556 640 35,000  Level FlightAware
03:54AM 44.9720 4.6760 126° Southeast 556 640 35,000  Level FlightAware
03:55AM 44.9140 4.7830 127° Southeast 555 639 35,000  Level FlightAware
03:56AM 44.8610 4.8850 126° Southeast 554 638 35,000  Level FlightAware
03:56AM 44.8060 4.9880 127° Southeast 554 638 35,000  Level FlightAware
03:57AM 44.7560 5.0850 126° Southeast 554 638 35,000  Level FlightAware
03:57AM 44.7040 5.1960 123° Southeast 553 636 35,000  Level FlightAware
03:58AM 44.6550 5.3010 123° Southeast 553 636 35,000  Level FlightAware
03:58AM 44.6060 5.4060 123° Southeast 551 634 35,000  Level FlightAware
03:59AM 44.5580 5.5070 124° Southeast 550 633 35,000  Level FlightAware
04:00AM 44.5110 5.6080 123° Southeast 548 631 35,000  Level FlightAware
04:00AM 44.4590 5.7210 123° Southeast 547 629 35,000  Level FlightAware
04:01AM 44.4110 5.8250 123° Southeast 548 631 35,000  Level FlightAware
04:01AM 44.3670 5.9170 124° Southeast 547 629 35,000  Level FlightAware
04:02AM 44.3170 6.0230 123° Southeast 548 631 35,000  Level FlightAware
04:03AM 44.2650 6.1320 124° Southeast 548 631 35,000  Level FlightAware
04:03AM 44.2110 6.2430 124° Southeast 549 632 35,000  Level FlightAware
04:04AM 44.1650 6.3400 123° Southeast 548 631 35,000  Level FlightAware
04:04AM 44.1170 6.4400 124° Southeast 549 632 35,000  Level FlightAware
04:05AM 44.0720 6.5340 124° Southeast 549 632 35,000  Level FlightAware
04:05AM 44.0180 6.6450 124° Southeast 551 634 35,000  Level FlightAware
04:06AM 43.9680 6.7450 125° Southeast 553 636 35,000  Level FlightAware
04:07AM 43.9220 6.8420 123° Southeast 553 636 35,000  Level FlightAware
04:07AM 43.8690 6.9470 125° Southeast 553 636 35,000  Level FlightAware
04:08AM 43.8180 7.0520 124° Southeast 552 635 35,000  Level FlightAware
04:08AM 43.7640 7.1600 125° Southeast 552 635 35,000  Level FlightAware
04:09AM 43.7180 7.2530 124° Southeast 552 635 35,000  Level FlightAware
04:10AM 43.6670 7.3550 125° Southeast 553 636 35,000  Level FlightAware
04:10AM 43.6130 7.4660 124° Southeast 555 639 35,000  Level FlightAware
04:11AM 43.5600 7.5710 125° Southeast 557 641 35,000  Level FlightAware
04:12AM 43.4990 7.6910 125° Southeast 557 641 35,000  Level FlightAware
04:12AM 43.4420 7.8040 125° Southeast 556 640 35,000  Level FlightAware
04:13AM 43.3850 7.9170 125° Southeast 555 639 35,000  Level FlightAware
04:13AM 43.3380 8.0100 125° Southeast 555 639 35,000  Level FlightAware
04:14AM 43.2870 8.1100 125° Southeast 554 638 35,000  Level FlightAware
04:14AM 43.2320 8.2170 125° Southeast 553 636 35,000  Level FlightAware
04:15AM 43.1820 8.3170 124° Southeast 553 636 35,000  Level FlightAware
04:16AM 43.1330 8.4090 126° Southeast 554 638 35,000  Level FlightAware
04:16AM 43.0840 8.5030 125° Southeast 555 639 35,000  Level FlightAware
04:17AM 43.0270 8.6150 125° Southeast 556 640 35,000  Level FlightAware
04:17AM 42.9810 8.7010 126° Southeast 556 640 35,000  Level FlightAware
04:18AM 42.9240 8.8120 125° Southeast 556 640 35,000 240 Level FlightAware
04:19AM 42.8690 8.9150 126° Southeast 555 639 35,300 1,020 Climbing FlightAware
04:19AM 42.8240 9.0030 125° Southeast 549 632 36,200 1,440 Climbing FlightAware
04:20AM 42.7740 9.0980 126° Southeast 548 631 36,900 660 Climbing FlightAware
04:20AM 42.7160 9.2070 126° Southeast 547 629 37,000 60 Climbing FlightAware
04:21AM 42.6620 9.3100 125° Southeast 543 625 37,000  Level FlightAware
04:21AM 42.6130 9.4010 126° Southeast 538 619 37,000  Level FlightAware
04:22AM 42.5650 9.5050 122° Southeast 546 628 37,000  Level FlightAware
04:23AM 42.5260 9.6240 114° Southeast 552 635 37,000  Level FlightAware
04:23AM 42.5010 9.7180 110° East 551 634 37,000  Level FlightAware
04:24AM 42.4700 9.8350 110° East 552 635 37,000  Level FlightAware
04:24AM 42.4370 9.9620 109° East 556 640 37,000  Level FlightAware
04:25AM 42.4090 10.0670 110° East 558 642 37,000  Level FlightAware
04:26AM 42.3770 10.1860 110° East 558 642 37,000  Level FlightAware
04:26AM 42.3460 10.3040 110° East 561 646 37,000  Level FlightAware
04:27AM 42.3170 10.4090 110° East 562 647 37,000  Level FlightAware
04:27AM 42.2860 10.5250 110° East 565 650 37,000  Level FlightAware
04:28AM 42.2540 10.6450 110° East 568 654 37,000  Level FlightAware
04:28AM 42.2230 10.7610 110° East 567 652 37,000  Level FlightAware
04:29AM 42.1890 10.8830 111° Southeast 562 647 37,000  Level FlightAware
04:30AM 42.1580 10.9980 110° East 559 643 37,000  Level FlightAware
04:30AM 42.1210 11.1280 111° Southeast 558 642 37,000  Level FlightAware
04:31AM 42.0880 11.2510 110° East 556 640 37,000  Level FlightAware
04:31AM 42.0540 11.3520 114° Southeast 548 631 37,000  Level FlightAware
04:32AM 42.0000 11.4520 126° Southeast 531 611 37,000  Level FlightAware
04:33AM 41.9410 11.5360 133° Southeast 529 609 37,000  Level FlightAware
04:33AM 41.8860 11.6140 133° Southeast 526 605 37,000  Level FlightAware
04:34AM 41.8280 11.6940 134° Southeast 522 601 37,000  Level FlightAware
04:34AM 41.7670 11.7800 134° Southeast 520 598 37,000  Level FlightAware
04:35AM 41.7120 11.8570 134° Southeast 520 598 37,000  Level FlightAware
04:36AM 41.6530 11.9410 133° Southeast 519 597 37,000  Level FlightAware
04:36AM 41.5930 12.0240 134° Southeast 519 597 37,000  Level FlightAware
04:37AM 41.5340 12.1050 134° Southeast 522 601 37,000  Level FlightAware
04:37AM 41.4720 12.1920 134° Southeast 524 603 37,000  Level FlightAware
04:38AM 41.4190 12.2660 134° Southeast 525 604 37,000  Level FlightAware
04:38AM 41.3590 12.3480 134° Southeast 526 605 37,000  Level FlightAware
04:39AM 41.2990 12.4310 134° Southeast 524 603 37,000  Level FlightAware
04:40AM 41.2370 12.5150 134° Southeast 522 601 37,000  Level FlightAware
04:40AM 41.1810 12.5900 135° Southeast 519 597 37,000  Level FlightAware
04:41AM 41.1210 12.6720 134° Southeast 516 594 37,000  Level FlightAware
04:41AM 41.0710 12.7420 133° Southeast 514 592 37,000  Level FlightAware
04:42AM 41.0030 12.8340 134° Southeast 512 589 37,000  Level FlightAware
04:43AM 40.9480 12.9090 134° Southeast 512 589 37,000  Level FlightAware
04:43AM 40.8860 13.0140 128° Southeast 528 608 37,000  Level FlightAware
04:44AM 40.8460 13.1030 121° Southeast 527 606 37,000  Level FlightAware
04:44AM 40.7990 13.2150 119° Southeast 523 602 37,000  Level FlightAware
04:45AM 40.7620 13.3010 120° Southeast 521 600 37,000  Level FlightAware
04:46AM 40.7210 13.3940 120° Southeast 517 595 37,000  Level FlightAware
04:46AM 40.6740 13.5000 120° Southeast 514 592 37,000  Level FlightAware
04:47AM 40.6310 13.5970 120° Southeast 514 592 37,000  Level FlightAware
04:47AM 40.5930 13.6830 120° Southeast 513 590 37,000  Level FlightAware
04:48AM 40.5500 13.7800 120° Southeast 511 588 37,000  Level FlightAware
04:49AM 40.5070 13.8760 120° Southeast 509 586 37,000  Level FlightAware
04:49AM 40.4660 13.9660 121° Southeast 507 583 37,000  Level FlightAware
04:50AM 40.4170 14.0750 121° Southeast 505 581 37,000  Level FlightAware
04:50AM 40.3750 14.1700 120° Southeast 503 579 37,000  Level FlightAware
04:51AM 40.3310 14.2670 121° Southeast 505 581 37,000  Level FlightAware
04:52AM 40.2920 14.3510 121° Southeast 506 582 37,000  Level FlightAware
04:52AM 40.2490 14.4460 121° Southeast 506 582 37,000  Level FlightAware
04:53AM 40.2060 14.5410 121° Southeast 507 583 37,000  Level FlightAware
04:53AM 40.1630 14.6360 121° Southeast 512 589 37,000  Level FlightAware
04:54AM 40.1230 14.7230 121° Southeast 514 592 37,000  Level FlightAware
04:54AM 40.0800 14.8170 121° Southeast 517 595 37,000  Level FlightAware
04:55AM 40.0340 14.9160 121° Southeast 518 596 37,000  Level FlightAware
04:56AM 39.9910 15.0100 121° Southeast 518 596 37,000  Level FlightAware
04:56AM 39.9520 15.0930 121° Southeast 519 597 37,000  Level FlightAware
04:57AM 39.9060 15.1890 122° Southeast 520 598 37,000  Level FlightAware
04:57AM 39.8610 15.2880 121° Southeast 522 601 37,000  Level FlightAware
04:58AM 39.8170 15.3820 121° Southeast 523 602 37,000  Level FlightAware
04:59AM 39.7770 15.4680 121° Southeast 524 603 37,000  Level FlightAware
04:59AM 39.7300 15.5650 122° Southeast 525 604 37,000  Level FlightAware
05:00AM 39.6850 15.6610 121° Southeast 525 604 37,000  Level FlightAware
05:00AM 39.6410 15.7530 122° Southeast 525 604 37,000  Level FlightAware
05:01AM 39.5990 15.8550 118° Southeast 530 610 37,000  Level FlightAware
05:01AM 39.5660 15.9450 115° Southeast 529 609 37,000  Level FlightAware
05:02AM 39.5290 16.0550 114° Southeast 528 608 37,000  Level FlightAware
05:03AM 39.4960 16.1570 113° Southeast 527 606 37,000  Level FlightAware
05:03AM 39.4640 16.2520 114° Southeast 528 608 37,000  Level FlightAware
05:04AM 39.4300 16.3570 113° Southeast 528 608 37,000  Level FlightAware
05:04AM 39.3960 16.4590 113° Southeast 531 611 37,000  Level FlightAware
05:05AM 39.3640 16.5580 113° Southeast 530 610 37,000  Level FlightAware
05:06AM 39.3300 16.6590 113° Southeast 528 608 37,000  Level FlightAware
05:06AM 39.2940 16.7660 113° Southeast 525 604 37,000  Level FlightAware
05:07AM 39.2630 16.8610 113° Southeast 522 601 37,000  Level FlightAware
05:07AM 39.2300 16.9580 114° Southeast 519 597 37,000  Level FlightAware
05:08AM 39.1970 17.0570 113° Southeast 517 595 37,000  Level FlightAware
05:08AM 39.1610 17.1610 114° Southeast 516 594 37,000  Level FlightAware
05:09AM 39.1240 17.2680 114° Southeast 519 597 37,000  Level FlightAware
05:10AM 39.0950 17.3560 113° Southeast 519 597 37,000  Level FlightAware
05:10AM 39.0590 17.4600 114° Southeast 519 597 37,000  Level FlightAware
05:11AM 39.0280 17.5540 113° Southeast 522 601 37,000  Level FlightAware
05:12AM 38.9830 17.6840 114° Southeast 524 603 37,000  Level FlightAware
05:12AM 38.9480 17.7850 114° Southeast 528 608 37,000  Level FlightAware
05:13AM 38.9230 17.8540 115° Southeast 530 610 37,000  Level FlightAware
05:13AM 38.8880 17.9570 114° Southeast 531 611 37,000  Level FlightAware
05:14AM 38.8510 18.0640 114° Southeast 534 615 37,000  Level FlightAware
05:14AM 38.8140 18.1680 115° Southeast 535 616 37,000  Level FlightAware
05:15AM 38.7820 18.2580 114° Southeast 537 618 37,000  Level FlightAware
05:15AM 38.7440 18.3680 114° Southeast 537 618 37,000  Level FlightAware
05:16AM 38.7080 18.4690 115° Southeast 535 616 37,000  Level FlightAware
05:17AM 38.6750 18.5640 114° Southeast 533 613 37,000  Level FlightAware
05:17AM 38.6410 18.6690 112° Southeast 533 613 37,000  Level FlightAware
05:18AM 38.6090 18.7720 112° Southeast 533 613 37,000  Level FlightAware
05:19AM 38.5760 18.8830 111° Southeast 534 615 37,000  Level FlightAware
05:20AM 38.5330 19.0280 111° Southeast 534 615 37,000  Level FlightAware
05:20AM 38.5070 19.1190 110° East 534 615 37,000  Level FlightAware
05:21AM 38.4730 19.2320 111° Southeast 534 615 37,000  Level FlightAware
05:21AM 38.4360 19.3560 111° Southeast 536 617 37,000  Level FlightAware
05:22AM 38.4130 19.4330 111° Southeast 536 617 37,000  Level FlightAware
05:22AM 38.3790 19.5450 111° Southeast 536 617 37,000  Level FlightAware
05:23AM 38.3410 19.6720 111° Southeast 536 617 37,000  Level FlightAware
05:24AM 38.3100 19.7720 112° Southeast 537 618 37,000  Level FlightAware
05:24AM 38.2750 19.8900 111° Southeast 538 619 37,000  Level FlightAware
05:25AM 38.2340 20.0220 112° Southeast 538 619 37,000  Level FlightAware
05:26AM 38.1940 20.1520 111° Southeast 537 618 37,000  Level FlightAware
05:26AM 38.1640 20.2480 112° Southeast 537 618 37,000  Level FlightAware
05:27AM 38.1340 20.3420 112° Southeast 537 618 37,000  Level FlightAware
05:27AM 38.0970 20.4590 112° Southeast 536 617 37,000  Level FlightAware
05:28AM 38.0650 20.5650 111° Southeast 535 616 37,000  Level FlightAware
05:29AM 38.0380 20.6500 112° Southeast 535 616 37,000  Level FlightAware
05:29AM 37.9960 20.7830 112° Southeast 536 617 37,000  Level FlightAware
05:30AM 37.9640 20.8820 112° Southeast 534 615 37,000  Level FlightAware
05:30AM 37.9280 20.9950 112° Southeast 534 615 37,000  Level FlightAware
05:31AM 37.8980 21.0910 112° Southeast 535 616 37,000  Level FlightAware
05:32AM 37.8640 21.1950 112° Southeast 535 616 37,000  Level FlightAware
05:32AM 37.8300 21.3020 112° Southeast 536 617 37,000  Level FlightAware
05:33AM 37.8010 21.3920 112° Southeast 536 617 37,000  Level FlightAware
05:33AM 37.7670 21.4970 112° Southeast 537 618 37,000  Level FlightAware
05:34AM 37.7370 21.5900 112° Southeast 538 619 37,000  Level FlightAware
05:35AM 37.7000 21.7060 112° Southeast 537 618 37,000  Level FlightAware
05:35AM 37.6680 21.8010 113° Southeast 537 618 37,000  Level FlightAware
05:36AM 37.6350 21.9030 112° Southeast 537 618 37,000  Level FlightAware
05:36AM 37.6020 22.0010 113° Southeast 536 617 37,000  Level FlightAware
05:37AM 37.5720 22.0930 112° Southeast 537 618 37,000  Level FlightAware
05:37AM 37.5360 22.2000 113° Southeast 537 618 37,000  Level FlightAware
05:38AM 37.5010 22.3040 113° Southeast 537 618 37,000  Level FlightAware
05:39AM 37.4680 22.4050 112° Southeast 536 617 37,000  Level FlightAware
05:39AM 37.4320 22.5110 113° Southeast 537 618 37,000  Level FlightAware
05:40AM 37.3980 22.6120 113° Southeast 536 617 37,000  Level FlightAware
05:40AM 37.3650 22.7090 113° Southeast 535 616 37,000  Level FlightAware
05:41AM 37.3300 22.8120 113° Southeast 535 616 37,000  Level FlightAware
05:41AM 37.2960 22.9150 113° Southeast 535 616 37,000  Level FlightAware
05:42AM 37.2630 23.0120 113° Southeast 536 617 37,000  Level FlightAware
05:43AM 37.2270 23.1170 113° Southeast 535 616 37,000  Level FlightAware
05:43AM 37.1940 23.2120 114° Southeast 536 617 37,000  Level FlightAware
05:44AM 37.1600 23.3110 113° Southeast 535 616 37,000  Level FlightAware
05:44AM 37.1260 23.4080 114° Southeast 534 615 37,000  Level FlightAware
05:45AM 37.0920 23.5070 113° Southeast 533 613 37,000  Level FlightAware
05:46AM 37.0560 23.6090 114° Southeast 532 612 37,000  Level FlightAware
05:46AM 37.0200 23.7130 113° Southeast 531 611 37,000  Level FlightAware
05:47AM 36.9880 23.8060 113° Southeast 531 611 37,000  Level FlightAware
05:47AM 36.9530 23.9040 114° Southeast 531 611 37,000  Level FlightAware
05:48AM 36.9160 24.0080 114° Southeast 531 611 37,000  Level FlightAware
05:48AM 36.8850 24.0950 114° Southeast 531 611 37,000  Level FlightAware
05:49AM 36.8460 24.2040 114° Southeast 531 611 37,000  Level FlightAware
05:50AM 36.8170 24.2880 113° Southeast 531 611 37,000  Level FlightAware
05:50AM 36.7800 24.3920 114° Southeast 530 610 37,000  Level FlightAware
05:51AM 36.7400 24.5040 114° Southeast 531 611 37,000  Level FlightAware
05:51AM 36.7060 24.5960 115° Southeast 531 611 37,000  Level FlightAware
05:52AM 36.6740 24.6850 114° Southeast 530 610 37,000  Level FlightAware
05:53AM 36.6400 24.7790 114° Southeast 529 609 37,000  Level FlightAware
05:53AM 36.6030 24.8820 114° Southeast 529 609 37,000  Level FlightAware
05:54AM 36.5690 24.9760 114° Southeast 529 609 37,000  Level FlightAware
05:54AM 36.5320 25.0760 115° Southeast 530 610 37,000  Level FlightAware
05:55AM 36.4950 25.1780 114° Southeast 529 609 37,000  Level FlightAware
05:55AM 36.4650 25.2590 115° Southeast 529 609 37,000  Level FlightAware
05:56AM 36.4250 25.3660 115° Southeast 529 609 37,000  Level FlightAware
05:57AM 36.3890 25.4630 115° Southeast 529 609 37,000  Level FlightAware
05:57AM 36.3560 25.5510 115° Southeast 530 610 37,000  Level FlightAware
05:58AM 36.3200 25.6510 114° Southeast 530 610 37,000  Level FlightAware
05:58AM 36.2820 25.7520 115° Southeast 530 610 37,000  Level FlightAware
05:59AM 36.2450 25.8490 115° Southeast 530 610 37,000  Level FlightAware
06:00AM 36.2020 25.9640 115° Southeast 530 610 37,000  Level FlightAware
06:00AM 36.1650 26.0630 115° Southeast 530 610 37,000  Level FlightAware
06:01AM 36.1290 26.1570 115° Southeast 530 610 37,000  Level FlightAware
06:01AM 36.0950 26.2470 115° Southeast 531 611 37,000  Level FlightAware
06:02AM 36.0570 26.3490 115° Southeast 530 610 37,000  Level FlightAware
06:03AM 36.0180 26.4480 116° Southeast 530 610 37,000  Level FlightAware
06:03AM 35.9820 26.5440 115° Southeast 530 610 37,000  Level FlightAware
06:04AM 35.9470 26.6360 115° Southeast 530 610 37,000  Level FlightAware
06:04AM 35.9090 26.7350 115° Southeast 531 611 37,000  Level FlightAware
06:05AM 35.8730 26.8280 116° Southeast 531 611 37,000  Level FlightAware
06:06AM 35.8420 26.9070 116° Southeast 531 611 37,000  Level FlightAware
06:06AM 35.8110 26.9910 114° Southeast 531 611 37,000  Level FlightAware
06:07AM 35.7610 27.1150 116° Southeast 534 615 37,000  Level FlightAware
06:07AM 35.7200 27.2190 116° Southeast 533 613 37,000  Level FlightAware
06:08AM 35.6860 27.3060 116° Southeast 533 613 37,000  Level FlightAware
06:08AM 35.6530 27.3910 116° Southeast 534 615 37,000  Level FlightAware
06:09AM 35.6120 27.4950 116° Southeast 534 615 37,000  Level FlightAware
06:10AM 35.5730 27.5930 116° Southeast 533 613 37,000  Level FlightAware
06:10AM 35.5350 27.6880 116° Southeast 533 613 37,000  Level FlightAware
06:11AM 35.5100 27.7500 116° Southeast 533 613 37,000  Level FlightAware
06:11AM 35.4510 27.8980 116° Southeast 534 615 37,000  Level FlightAware
06:12AM 35.4150 27.9900 116° Southeast 534 615 37,000  Level FlightAware
06:13AM 35.3730 28.0930 117° Southeast 534 615 37,000  Level FlightAware
06:13AM 35.3380 28.1800 116° Southeast 534 615 37,000  Level FlightAware
06:14AM 35.2940 28.2870 117° Southeast 533 613 37,000  Level FlightAware
06:14AM 35.2550 28.3860 116° Southeast 534 615 37,000  Level FlightAware
06:15AM 35.2180 28.4780 116° Southeast 534 615 37,000  Level FlightAware
06:16AM 35.1770 28.5750 117° Southeast 533 613 37,000  Level FlightAware
06:16AM 35.1390 28.6690 116° Southeast 534 615 37,000  Level FlightAware
06:17AM 35.1010 28.7610 117° Southeast 534 615 37,000  Level FlightAware
06:17AM 35.0610 28.8610 116° Southeast 534 615 37,000  Level FlightAware
06:18AM 35.0200 28.9580 117° Southeast 535 616 37,000  Level FlightAware
06:19AM 34.9800 29.0550 117° Southeast 536 617 37,000  Level FlightAware
06:19AM 34.9350 29.1630 117° Southeast 536 617 37,000  Level FlightAware
06:20AM 34.8940 29.2620 117° Southeast 536 617 37,000  Level FlightAware
06:20AM 34.8600 29.3430 117° Southeast 537 618 37,000  Level FlightAware
06:21AM 34.8140 29.4530 117° Southeast 538 619 37,000  Level FlightAware
06:22AM 34.7750 29.5450 117° Southeast 538 619 37,000  Level FlightAware
06:22AM 34.7460 29.6150 117° Southeast 538 619 37,000  Level FlightAware
06:23AM 34.7010 29.7230 117° Southeast 539 620 37,000  Level FlightAware
06:23AM 34.6600 29.8200 117° Southeast 540 621 37,000  Level FlightAware
06:24AM 34.6160 29.9260 117° Southeast 536 617 37,000  Level FlightAware
06:25AM 34.5740 30.0220 118° Southeast 536 617 37,000  Level FlightAware
06:25AM 34.5260 30.1210 120° Southeast 539 620 37,000  Level FlightAware
06:26AM 34.4700 30.2360 121° Southeast 539 620 37,000  Level FlightAware
06:26AM 34.4330 30.3110 121° Southeast 540 621 37,000  Level FlightAware
06:27AM 34.3820 30.4180 120° Southeast 539 620 37,000  Level FlightAware
06:28AM 34.3430 30.4990 120° Southeast 540 621 37,000  Level FlightAware
06:28AM 34.2980 30.5900 121° Southeast 540 621 37,000  Level FlightAware
06:29AM 34.2560 30.6790 120° Southeast 541 623 37,000  Level FlightAware
06:29AM 34.2090 30.7760 120° Southeast 541 623 37,000  Level FlightAware
06:30AM 34.1690 30.8570 121° Southeast 542 624 37,000  Level FlightAware
06:31AM 34.1170 30.9670 120° Southeast 542 624 37,000  Level FlightAware
06:31AM 34.0710 31.0580 121° Southeast 542 624 37,000  Level FlightAware
06:32AM 34.0330 31.1360 120° Southeast 542 624 37,000  Level FlightAware
06:32AM 33.9830 31.2370 121° Southeast 542 624 37,000  Level FlightAware
06:33AM 33.9440 31.3180 120° Southeast 542 624 37,000  Level FlightAware
06:33AM 33.8990 31.4090 121° Southeast 541 623 37,000  Level FlightAware
06:34AM 33.8510 31.5040 121° Southeast 542 624 37,000  Level FlightAware
06:35AM 33.8090 31.5890 121° Southeast 541 623 37,000  Level FlightAware
06:35AM 33.7620 31.6850 120° Southeast 541 623 37,000  Level FlightAware
06:36AM 33.7200 31.7680 121° Southeast 540 621 37,000  Level FlightAware
06:36AM 33.6730 31.8630 121° Southeast 540 621 37,000  Level FlightAware
06:37AM 33.6290 31.9500 121° Southeast 539 620 37,000  Level FlightAware
06:38AM 33.5830 32.0420 121° Southeast 539 620 37,000  Level FlightAware
06:38AM 33.5370 32.1340 121° Southeast 539 620 37,000  Level FlightAware
06:39AM 33.4920 32.2240 121° Southeast 535 616 37,000  Level FlightAware
06:39AM 33.4460 32.3130 122° Southeast 535 616 37,000  Level FlightAware
06:40AM 33.4000 32.4020 122° Southeast 536 617 37,000  Level FlightAware
06:41AM 33.3560 32.4890 121° Southeast 536 617 37,000  Level FlightAware
06:41AM 33.3130 32.5730 121° Southeast 536 617 37,000 -120 Level FlightAware
06:42AM 33.2600 32.6770 121° Southeast 540 621 36,900 -1,800 Descending FlightAware
06:42AM 33.2190 32.7570 121° Southeast 551 634 35,000 -3,780 Descending FlightAware
06:43AM 33.1610 32.8700 121° Southeast 556 640 32,200 -3,360 Descending FlightAware
06:44AM 33.1100 32.9700 121° Southeast 533 613 30,300 -2,700 Descending FlightAware
06:44AM 33.0570 33.0710 122° Southeast 515 593 28,700 -2,520 Descending FlightAware
06:45AM 33.0130 33.1560 122° Southeast 497 572 27,200 -2,400 Descending FlightAware
06:45AM 32.9750 33.2320 121° Southeast 481 554 26,000 -2,100 Descending FlightAware
06:46AM 32.9380 33.3020 122° Southeast 462 532 24,900 -2,100 Descending FlightAware
06:47AM 32.8960 33.3800 123° Southeast 445 512 23,600 -2,160 Descending FlightAware
06:47AM 32.8560 33.4570 122° Southeast 445 512 22,300 -2,100 Descending FlightAware
06:48AM 32.8200 33.5250 122° Southeast 445 512 21,200 -2,160 Descending FlightAware
06:48AM 32.7810 33.6020 121° Southeast 440 506 19,900 -2,100 Descending FlightAware
06:49AM 32.7420 33.6750 122° Southeast 435 501 18,700 -1,980 Descending FlightAware
06:50AM 32.7050 33.7460 122° Southeast 426 490 17,600 -1,920 Descending FlightAware
06:50AM 32.6710 33.8100 122° Southeast 413 475 16,500 -1,920 Descending FlightAware
06:51AM 32.6340 33.8780 123° Southeast 408 470 15,400 -1,860 Descending FlightAware
06:51AM 32.6000 33.9440 121° Southeast 400 460 14,300 -1,860 Descending FlightAware
06:52AM 32.5680 34.0030 123° Southeast 394 453 13,300 -1,860 Descending FlightAware
06:52AM 32.5330 34.0700 122° Southeast 387 445 12,200 -1,860 Descending FlightAware
06:53AM 32.4980 34.1360 122° Southeast 374 430 11,100 -1,560 Descending FlightAware
06:54AM 32.4620 34.1880 129° Southeast 353 406 10,400 -900 Descending FlightAware
06:54AM 32.4270 34.2290 135° Southeast 328 377 10,100 -480 Descending FlightAware
06:55AM 32.3940 34.2680 135° Southeast 241 277 9,900 -480 Descending FlightAware
06:55AM 32.3780 34.2860 136° Southeast 293 337 9,700 -1,620 Descending FlightAware
06:55AM 32.3450 34.3250 135° Southeast 297 342 8,700 -1,740 Descending FlightAware
06:56AM 32.3370 34.3360 131° Southeast 296 341 8,600 -780 Descending FlightAware
06:56AM 32.3220 34.3530 136° Southeast 290 334 8,300 -960 Descending FlightAware
06:56AM 32.2940 34.3850 136° Southeast 279 321 7,900 -1,020 Descending FlightAware
06:57AM 32.2670 34.4170 135° Southeast 277 319 7,400 -900 Descending FlightAware
06:57AM 32.2450 34.4420 136° Southeast 276 318 7,100 -780 Descending FlightAware
06:58AM 32.2290 34.4630 132° Southeast 274 315 6,800 -720 Descending FlightAware
06:58AM 32.2150 34.4880 123° Southeast 271 312 6,700 -480 Descending FlightAware
06:58AM 32.2010 34.5140 122° Southeast 269 310 6,500 -240 Descending FlightAware
06:59AM 32.1850 34.5460 121° Southeast 269 310 6,500 -480 Level FlightAware
06:59AM 32.1680 34.5770 123° Southeast 270 311 6,100 -900 Descending FlightAware
07:00AM 32.1510 34.6080 123° Southeast 270 311 5,900 -480 Descending FlightAware
07:00AM 32.1300 34.6480 122° Southeast 270 311 5,700 -480 Descending FlightAware
07:00AM 32.1190 34.6680 123° Southeast 268 308 5,500 -360 Descending FlightAware
07:01AM 32.0960 34.7120 122° Southeast 267 307 5,400 -600 Descending FlightAware
07:01AM 32.1100 34.6850 301° West 267 307 5,000 -600 Descending FlightAware
07:02AM 32.0940 34.7150 122° Southeast 267 307 5,000 -540 Level FlightAware
07:02AM 32.0390 34.8000 127° Southeast 228 262 4,400 -600 Descending FlightAware
07:03AM 32.0230 34.8190 135° Southeast 228 262 4,400  Level FlightAware
07:03AM 32.0000 34.8440 137° Southeast 227 261 4,400 -180 Level FlightAware
07:04AM 31.9850 34.8610 136° Southeast 217 250 4,300 -960 Descending FlightAware
07:04AM 31.9740 34.8780 127° Southeast 192 221 3,800 -1,380 Descending FlightAware
07:04AM 31.9730 34.8910 95° East 183 211 3,500 -1,200 Descending FlightAware
07:05AM 31.9770 34.9150 79° East 164 189 3,000 -1,200 Descending FlightAware
07:05AM 31.9800 34.9260 72° East 161 185 2,700 -1,500 Descending FlightAware
07:05AM 31.9850 34.9490 76° East 163 188 2,000 -1,320 Descending FlightAware
07:06AM 31.9990 34.9660 46° Northeast 158 182 1,600 -900 Descending FlightAware
07:06AM 32.0040 34.9660 360° North 155 178 1,500 -780 Descending FlightAware
07:06AM 32.0210 34.9590 341° North 150 173 1,200 -720 Descending FlightAware
07:07AM 32.0260 34.9490 301° West 153 176 1,000 -840 Descending FlightAware
07:07AM 32.0230 34.9310 259° West 157 181 700 -780 Descending FlightAware
07:07AM 32.0210 34.9110 263° West 154 177 400 -360 Descending FlightAware
07:08AM 32.0180 34.8920 259° West 154 177 400  Level FlightAware